< Typhoon 196003 1960 Season Typhoon 196005 >
Typhoon 196004 (NADINE)
General InformationTrack Information on Google Maps || Disaster Info.ResourceGoogle EarthGE AnimationAtom FeedGeoJSON
Detalied Best Track (Time Zone = UTC)
Year Month Day Hour Lat. Long. Pressure (hPa) Wind (kt) Class Image Chart
1960 6 2 00 12.0 135.0 1008 0 2 -- Chart
1960 6 2 06 12.0 134.0 1006 0 2 -- Chart
1960 6 2 12 12.0 133.0 1006 0 2 -- Chart
1960 6 2 18 12.3 132.0 1004 0 2 -- Chart
1960 6 3 00 13.0 131.0 1004 0 2 -- Chart
1960 6 3 06 14.0 129.6 1002 0 2 -- Chart
1960 6 3 12 15.0 129.0 1004 0 2 -- Chart
1960 6 3 18 16.2 128.5 1004 0 2 -- Chart
1960 6 4 00 16.5 128.4 1002 0 2 -- Chart
1960 6 4 06 17.3 128.3 1000 0 2 -- Chart
1960 6 4 12 17.7 128.2 1000 0 2 -- Chart
1960 6 4 18 18.0 128.2 995 0 9 -- Chart
1960 6 5 00 18.3 128.3 990 0 9 -- Chart
1960 6 5 06 19.0 128.8 985 0 9 -- Chart
1960 6 5 12 19.8 129.1 985 0 9 -- Chart
1960 6 5 18 20.5 129.5 985 0 9 -- Chart
1960 6 6 00 21.5 129.8 985 0 9 -- Chart
1960 6 6 06 22.1 129.8 985 0 9 -- Chart
1960 6 6 12 22.5 129.8 985 0 9 -- Chart
1960 6 6 18 23.0 130.0 985 0 9 -- Chart
1960 6 7 00 23.6 130.6 985 0 9 -- Chart
1960 6 7 06 24.0 130.9 985 0 9 -- Chart
1960 6 7 12 24.5 131.3 985 0 9 -- Chart
1960 6 7 18 25.2 131.8 985 0 9 -- Chart
1960 6 8 00 26.0 132.5 985 0 9 -- Chart
1960 6 8 06 26.5 133.1 985 0 9 -- Chart
1960 6 8 12 27.4 134.3 985 0 9 -- Chart
1960 6 8 18 28.5 135.5 990 0 9 -- Chart
1960 6 9 00 29.5 137.1 990 0 9 -- Chart
1960 6 9 06 30.0 138.9 990 0 9 -- Chart
1960 6 9 12 30.8 140.6 990 0 9 -- Chart
1960 6 9 18 31.8 143.2 990 0 9 -- Chart
1960 6 10 00 32.9 146.3 990 0 9 -- Chart
1960 6 10 06 34.0 149.5 988 0 9 -- Chart
1960 6 10 12 35.0 153.0 988 0 9 -- Chart
1960 6 10 18 36.1 156.2 988 0 9 -- Chart
1960 6 11 00 36.7 158.9 988 0 9 -- Chart
1960 6 11 06 37.0 162.0 990 0 6 -- Chart
1960 6 11 12 37.0 167.0 990 0 6 -- Chart
1960 6 11 18 39.2 169.8 992 0 6 -- Chart
Japan Meteorological Agency Best Track Data | Correction Date : 1989-06-01
< Typhoon 196003 1960 Season Typhoon 196005 >

Help